sensor_id;sensor_type;location;lat;lon;timestamp;pressure;altitude;pressure_sealevel;temperature;humidity
46614;BME280;32338;50.430;6.806;2022-11-23T00:00:14;65919.84;;;4.62;100.00
46614;BME280;32338;50.430;6.806;2022-11-23T00:02:41;65920.59;;;4.65;100.00
46614;BME280;32338;50.430;6.806;2022-11-23T00:05:08;65918.16;;;4.61;100.00
46614;BME280;32338;50.430;6.806;2022-11-23T00:07:34;65916.47;;;4.59;100.00
46614;BME280;32338;50.430;6.806;2022-11-23T00:10:01;65913.66;;;4.57;100.00
46614;BME280;32338;50.430;6.806;2022-11-23T00:12:28;65914.59;;;4.55;100.00
46614;BME280;32338;50.430;6.806;2022-11-23T00:14:55;65918.16;;;4.61;100.00
46614;BME280;32338;50.430;6.806;2022-11-23T00:17:22;65921.31;;;4.61;100.00
46614;BME280;32338;50.430;6.806;2022-11-23T00:19:49;65917.59;;;4.60;100.00
46614;BME280;32338;50.430;6.806;2022-11-23T00:22:15;65907.34;;;4.55;100.00
46614;BME280;32338;50.430;6.806;2022-11-23T00:24:42;65923.00;;;4.63;100.00
46614;BME280;32338;50.430;6.806;2022-11-23T00:27:08;65915.72;;;4.56;100.00
46614;BME280;32338;50.430;6.806;2022-11-23T00:29:35;65915.91;;;4.59;100.00
46614;BME280;32338;50.430;6.806;2022-11-23T00:32:03;65914.59;;;4.55;100.00
46614;BME280;32338;50.430;6.806;2022-11-23T00:34:30;65914.03;;;4.54;100.00
46614;BME280;32338;50.430;6.806;2022-11-23T00:36:56;65921.09;;;4.59;100.00
46614;BME280;32338;50.430;6.806;2022-11-23T00:39:23;65921.88;;;4.62;100.00
46614;BME280;32338;50.430;6.806;2022-11-23T00:41:50;65909.41;;;4.55;100.00
46614;BME280;32338;50.430;6.806;2022-11-23T00:44:16;65914.03;;;4.54;100.00
46614;BME280;32338;50.430;6.806;2022-11-23T00:46:43;65914.03;;;4.54;100.00
46614;BME280;32338;50.430;6.806;2022-11-23T00:49:11;65923.00;;;4.63;100.00
46614;BME280;32338;50.430;6.806;2022-11-23T00:51:37;65920.97;;;4.63;100.00
46614;BME280;32338;50.430;6.806;2022-11-23T00:54:05;65928.25;;;4.70;100.00
46614;BME280;32338;50.430;6.806;2022-11-23T00:56:33;65937.22;;;4.78;100.00
46614;BME280;32338;50.430;6.806;2022-11-23T00:59:01;65923.56;;;4.63;100.00
46614;BME280;32338;50.430;6.806;2022-11-23T01:01:30;65924.88;;;4.67;100.00
46614;BME280;32338;50.430;6.806;2022-11-23T01:03:59;65923.78;;;4.66;100.00
46614;BME280;32338;50.430;6.806;2022-11-23T01:06:29;65916.13;;;4.61;100.00
46614;BME280;32338;50.430;6.806;2022-11-23T01:08:57;65917.03;;;4.60;100.00
46614;BME280;32338;50.430;6.806;2022-11-23T01:11:27;65928.97;;;4.66;100.00
46614;BME280;32338;50.430;6.806;2022-11-23T01:13:54;65920.03;;;4.65;100.00
46614;BME280;32338;50.430;6.806;2022-11-23T01:16:22;65921.88;;;4.62;100.00
46614;BME280;32338;50.430;6.806;2022-11-23T01:18:51;65915.72;;;4.56;100.00
46614;BME280;32338;50.430;6.806;2022-11-23T01:21:18;65909.19;;;4.52;100.00
46614;BME280;32338;50.430;6.806;2022-11-23T01:23:46;65906.81;;;4.55;100.00
46614;BME280;32338;50.430;6.806;2022-11-23T01:26:12;65917.03;;;4.60;100.00
46614;BME280;32338;50.430;6.806;2022-11-23T01:28:39;65925.78;;;4.65;100.00
46614;BME280;32338;50.430;6.806;2022-11-23T01:31:07;65912.53;;;4.55;100.00
46614;BME280;32338;50.430;6.806;2022-11-23T01:33:35;65923.19;;;4.65;100.00
46614;BME280;32338;50.430;6.806;2022-11-23T01:36:08;65915.72;;;4.56;100.00
46614;BME280;32338;50.430;6.806;2022-11-23T01:38:34;65908.06;;;4.51;100.00
46614;BME280;32338;50.430;6.806;2022-11-23T01:41:04;65926.00;;;4.68;100.00
46614;BME280;32338;50.430;6.806;2022-11-23T01:43:30;65925.25;;;4.65;100.00
46614;BME280;32338;50.430;6.806;2022-11-23T01:45:58;65918.50;;;4.59;100.00
46614;BME280;32338;50.430;6.806;2022-11-23T01:48:27;65912.00;;;4.55;100.00
46614;BME280;32338;50.430;6.806;2022-11-23T01:50:57;65912.00;;;4.55;100.00
46614;BME280;32338;50.430;6.806;2022-11-23T01:53:25;65917.59;;;4.60;100.00
46614;BME280;32338;50.430;6.806;2022-11-23T01:55:54;65918.72;;;4.61;100.00
46614;BME280;32338;50.430;6.806;2022-11-23T01:58:24;65921.53;;;4.64;100.00
46614;BME280;32338;50.430;6.806;2022-11-23T02:00:51;65920.75;;;4.61;100.00
46614;BME280;32338;50.430;6.806;2022-11-23T02:03:18;65909.59;;;4.58;100.00
46614;BME280;32338;50.430;6.806;2022-11-23T02:05:46;65910.66;;;4.51;100.00
46614;BME280;32338;50.430;6.806;2022-11-23T02:08:15;65928.38;;;4.65;100.00
46614;BME280;32338;50.430;6.806;2022-11-23T02:10:42;65922.84;;;4.67;100.00
46614;BME280;32338;50.430;6.806;2022-11-23T02:13:10;65917.94;;;4.58;100.00
46614;BME280;32338;50.430;6.806;2022-11-23T02:15:39;65921.66;;;4.59;100.00
46614;BME280;32338;50.430;6.806;2022-11-23T02:18:11;65914.25;;;4.57;100.00
46614;BME280;32338;50.430;6.806;2022-11-23T02:20:39;65911.06;;;4.57;100.00
46614;BME280;32338;50.430;6.806;2022-11-23T02:23:15;65916.88;;;4.64;100.00
46614;BME280;32338;50.430;6.806;2022-11-23T02:26:01;65920.41;;;4.63;100.00
46614;BME280;32338;50.430;6.806;2022-11-23T02:28:32;65923.00;;;4.63;100.00
46614;BME280;32338;50.430;6.806;2022-11-23T02:31:01;65919.63;;;4.60;100.00
46614;BME280;32338;50.430;6.806;2022-11-23T02:33:28;65912.00;;;4.55;100.00
46614;BME280;32338;50.430;6.806;2022-11-23T02:35:56;65903.94;;;4.45;100.00
46614;BME280;32338;50.430;6.806;2022-11-23T02:38:27;65901.91;;;4.46;100.00
46614;BME280;32338;50.430;6.806;2022-11-23T02:40:55;65907.50;;;4.51;100.00
46614;BME280;32338;50.430;6.806;2022-11-23T02:43:23;65897.63;;;4.44;100.00
46614;BME280;32338;50.430;6.806;2022-11-23T02:45:52;65907.50;;;4.51;100.00
46614;BME280;32338;50.430;6.806;2022-11-23T02:48:20;65905.06;;;4.46;100.00
46614;BME280;32338;50.430;6.806;2022-11-23T02:50:46;65899.47;;;4.41;100.00
46614;BME280;32338;50.430;6.806;2022-11-23T02:53:13;65892.94;;;4.37;100.00
46614;BME280;32338;50.430;6.806;2022-11-23T02:55:40;65894.41;;;4.36;100.00
46614;BME280;32338;50.430;6.806;2022-11-23T02:58:07;65893.84;;;4.36;100.00
46614;BME280;32338;50.430;6.806;2022-11-23T03:00:35;65885.50;;;4.35;100.00
46614;BME280;32338;50.430;6.806;2022-11-23T03:03:02;65890.47;;;4.33;100.00
46614;BME280;32338;50.430;6.806;2022-11-23T03:05:29;65911.78;;;4.52;100.00
46614;BME280;32338;50.430;6.806;2022-11-23T03:07:56;65902.47;;;4.46;100.00
46614;BME280;32338;50.430;6.806;2022-11-23T03:10:23;65910.31;;;4.53;100.00
46614;BME280;32338;50.430;6.806;2022-11-23T03:12:52;65901.91;;;4.46;100.00
46614;BME280;32338;50.430;6.806;2022-11-23T03:15:19;65900.22;;;4.44;100.00
46614;BME280;32338;50.430;6.806;2022-11-23T03:17:47;65908.22;;;4.47;100.00
46614;BME280;32338;50.430;6.806;2022-11-23T03:20:14;65907.31;;;4.48;100.00
46614;BME280;32338;50.430;6.806;2022-11-23T03:22:41;65897.63;;;4.44;100.00
46614;BME280;32338;50.430;6.806;2022-11-23T03:25:07;65902.81;;;4.44;100.00
46614;BME280;32338;50.430;6.806;2022-11-23T03:27:34;65903.19;;;4.42;100.00
46614;BME280;32338;50.430;6.806;2022-11-23T03:30:03;65895.19;;;4.40;100.00
46614;BME280;32338;50.430;6.806;2022-11-23T03:32:30;65886.41;;;4.34;100.00
46614;BME280;32338;50.430;6.806;2022-11-23T03:34:58;65893.66;;;4.33;100.00
46614;BME280;32338;50.430;6.806;2022-11-23T03:37:24;65892.38;;;4.37;100.00
46614;BME280;32338;50.430;6.806;2022-11-23T03:39:51;65890.69;;;4.35;100.00
46614;BME280;32338;50.430;6.806;2022-11-23T03:42:18;65897.41;;;4.42;100.00
46614;BME280;32338;50.430;6.806;2022-11-23T03:44:44;65898.53;;;4.43;100.00
46614;BME280;32338;50.430;6.806;2022-11-23T03:47:11;65891.81;;;4.36;100.00
46614;BME280;32338;50.430;6.806;2022-11-23T03:49:37;65895.19;;;4.40;100.00
46614;BME280;32338;50.430;6.806;2022-11-23T03:52:06;65895.41;;;4.42;100.00
46614;BME280;32338;50.430;6.806;2022-11-23T03:54:33;65891.81;;;4.36;100.00
46614;BME280;32338;50.430;6.806;2022-11-23T03:56:59;65880.81;;;4.29;100.00
46614;BME280;32338;50.430;6.806;2022-11-23T03:59:26;65883.75;;;4.27;100.00
46614;BME280;32338;50.430;6.806;2022-11-23T04:01:52;65876.13;;;4.22;100.00
46614;BME280;32338;50.430;6.806;2022-11-23T04:04:19;65892.72;;;4.35;100.00
46614;BME280;32338;50.430;6.806;2022-11-23T04:06:46;65888.47;;;4.33;100.00
46614;BME280;32338;50.430;6.806;2022-11-23T04:09:14;65884.16;;;4.32;100.00
46614;BME280;32338;50.430;6.806;2022-11-23T04:11:40;65892.94;;;4.37;100.00
46614;BME280;32338;50.430;6.806;2022-11-23T04:14:07;65893.50;;;4.38;100.00
46614;BME280;32338;50.430;6.806;2022-11-23T04:16:34;65884.53;;;4.30;100.00
46614;BME280;32338;50.430;6.806;2022-11-23T04:19:00;65883.41;;;4.29;100.00
46614;BME280;32338;50.430;6.806;2022-11-23T04:21:27;65878.38;;;4.24;100.00
46614;BME280;32338;50.430;6.806;2022-11-23T04:23:53;65875.38;;;4.19;100.00
46614;BME280;32338;50.430;6.806;2022-11-23T04:26:21;65876.13;;;4.22;100.00
46614;BME280;32338;50.430;6.806;2022-11-23T04:28:48;65881.75;;;4.27;100.00
46614;BME280;32338;50.430;6.806;2022-11-23T04:31:15;65879.84;;;4.23;100.00
46614;BME280;32338;50.430;6.806;2022-11-23T04:33:41;65891.25;;;4.36;100.00
46614;BME280;32338;50.430;6.806;2022-11-23T04:36:08;65893.50;;;4.38;100.00
46614;BME280;32338;50.430;6.806;2022-11-23T04:38:34;65882.28;;;4.28;100.00
46614;BME280;32338;50.430;6.806;2022-11-23T04:41:01;65886.22;;;4.31;100.00
46614;BME280;32338;50.430;6.806;2022-11-23T04:43:29;65890.84;;;4.31;100.00
46614;BME280;32338;50.430;6.806;2022-11-23T04:45:56;65879.50;;;4.25;100.00
46614;BME280;32338;50.430;6.806;2022-11-23T04:48:23;65881.53;;;4.25;100.00
46614;BME280;32338;50.430;6.806;2022-11-23T04:50:50;65874.44;;;4.20;100.00
46614;BME280;32338;50.430;6.806;2022-11-23T04:53:16;65861.00;;;4.08;100.00
46614;BME280;32338;50.430;6.806;2022-11-23T04:55:43;65861.91;;;4.06;100.00
46614;BME280;32338;50.430;6.806;2022-11-23T04:58:09;65864.38;;;4.11;100.00
46614;BME280;32338;50.430;6.806;2022-11-23T05:00:37;65858.19;;;4.05;100.00
46614;BME280;32338;50.430;6.806;2022-11-23T05:03:04;65855.41;;;4.03;100.00
46614;BME280;32338;50.430;6.806;2022-11-23T05:05:30;65853.16;;;4.01;100.00
46614;BME280;32338;50.430;6.806;2022-11-23T05:07:57;65854.06;;;3.99;100.00
46614;BME280;32338;50.430;6.806;2022-11-23T05:10:24;65850.91;;;3.99;100.00
46614;BME280;32338;50.430;6.806;2022-11-23T05:12:51;65850.72;;;3.96;100.00
46614;BME280;32338;50.430;6.806;2022-11-23T05:15:18;65861.38;;;4.06;100.00
46614;BME280;32338;50.430;6.806;2022-11-23T05:17:46;65849.81;;;3.98;100.00
46614;BME280;32338;50.430;6.806;2022-11-23T05:20:12;65849.81;;;3.98;100.00
46614;BME280;32338;50.430;6.806;2022-11-23T05:22:39;65852.97;;;3.98;100.00
46614;BME280;32338;50.430;6.806;2022-11-23T05:25:07;65842.94;;;3.96;100.00
46614;BME280;32338;50.430;6.806;2022-11-23T05:27:34;65853.72;;;4.01;100.00
46614;BME280;32338;50.430;6.806;2022-11-23T05:30:00;65853.72;;;4.01;100.00
46614;BME280;32338;50.430;6.806;2022-11-23T05:32:27;65851.28;;;3.97;100.00
46614;BME280;32338;50.430;6.806;2022-11-23T05:34:55;65854.63;;;4.00;100.00
46614;BME280;32338;50.430;6.806;2022-11-23T05:37:22;65854.28;;;4.02;100.00
46614;BME280;32338;50.430;6.806;2022-11-23T05:39:48;65860.44;;;4.08;100.00
46614;BME280;32338;50.430;6.806;2022-11-23T05:42:15;65861.00;;;4.08;100.00
46614;BME280;32338;50.430;6.806;2022-11-23T05:44:41;65857.09;;;4.04;100.00
46614;BME280;32338;50.430;6.806;2022-11-23T05:47:08;65869.97;;;4.16;100.00
46614;BME280;32338;50.430;6.806;2022-11-23T05:49:35;65866.63;;;4.13;100.00
46614;BME280;32338;50.430;6.806;2022-11-23T05:52:03;65868.09;;;4.12;100.00
46614;BME280;32338;50.430;6.806;2022-11-23T05:54:30;65865.28;;;4.10;100.00
46614;BME280;32338;50.430;6.806;2022-11-23T05:56:56;65863.59;;;4.08;100.00
46614;BME280;32338;50.430;6.806;2022-11-23T05:59:23;65865.50;;;4.12;100.00
46614;BME280;32338;50.430;6.806;2022-11-23T06:01:50;65865.69;;;4.15;100.00
46614;BME280;32338;50.430;6.806;2022-11-23T06:04:16;65877.25;;;4.23;100.00
46614;BME280;32338;50.430;6.806;2022-11-23T06:06:43;65871.66;;;4.18;100.00
46614;BME280;32338;50.430;6.806;2022-11-23T06:09:11;65877.03;;;4.20;100.00
46614;BME280;32338;50.430;6.806;2022-11-23T06:11:37;65892.72;;;4.35;100.00
46614;BME280;32338;50.430;6.806;2022-11-23T06:14:04;65877.25;;;4.23;100.00
46614;BME280;32338;50.430;6.806;2022-11-23T06:16:31;65868.69;;;4.20;100.00
46614;BME280;32338;50.430;6.806;2022-11-23T06:18:57;65874.81;;;4.18;100.00
46614;BME280;32338;50.430;6.806;2022-11-23T06:21:24;65875.38;;;4.19;100.00
46614;BME280;32338;50.430;6.806;2022-11-23T06:23:51;65874.81;;;4.18;100.00
46614;BME280;32338;50.430;6.806;2022-11-23T06:26:19;65884.69;;;4.25;100.00
46614;BME280;32338;50.430;6.806;2022-11-23T06:28:46;65861.97;;;4.14;100.00
46614;BME280;32338;50.430;6.806;2022-11-23T06:31:12;65873.53;;;4.22;100.00
46614;BME280;32338;50.430;6.806;2022-11-23T06:33:39;65861.56;;;4.09;100.00
46614;BME280;32338;50.430;6.806;2022-11-23T06:36:08;65866.41;;;4.11;100.00
46614;BME280;32338;50.430;6.806;2022-11-23T06:38:35;65855.41;;;4.03;100.00
46614;BME280;32338;50.430;6.806;2022-11-23T06:41:02;65855.59;;;4.05;100.00
46614;BME280;32338;50.430;6.806;2022-11-23T06:43:30;65862.31;;;4.12;100.00
46614;BME280;32338;50.430;6.806;2022-11-23T06:45:57;65850.91;;;3.99;100.00
46614;BME280;32338;50.430;6.806;2022-11-23T06:48:24;65859.91;;;4.07;100.00
46614;BME280;32338;50.430;6.806;2022-11-23T06:50:50;65844.19;;;3.93;100.00
46614;BME280;32338;50.430;6.806;2022-11-23T06:53:17;65842.31;;;3.88;100.00
46614;BME280;32338;50.430;6.806;2022-11-23T06:55:44;65832.66;;;3.84;100.00
46614;BME280;32338;50.430;6.806;2022-11-23T06:58:10;65828.53;;;3.78;100.00
46614;BME280;32338;50.430;6.806;2022-11-23T07:00:38;65836.34;;;3.85;100.00
46614;BME280;32338;50.430;6.806;2022-11-23T07:03:05;65827.63;;;3.80;100.00
46614;BME280;32338;50.430;6.806;2022-11-23T07:05:32;65830.00;;;3.77;100.00
46614;BME280;32338;50.430;6.806;2022-11-23T07:07:58;65828.53;;;3.78;100.00
46614;BME280;32338;50.430;6.806;2022-11-23T07:10:25;65822.00;;;3.75;100.00
46614;BME280;32338;50.430;6.806;2022-11-23T07:12:51;65825.72;;;3.76;100.00
46614;BME280;32338;50.430;6.806;2022-11-23T07:15:18;65820.13;;;3.70;100.00
46614;BME280;32338;50.430;6.806;2022-11-23T07:17:46;65826.63;;;3.74;100.00
46614;BME280;32338;50.430;6.806;2022-11-23T07:20:13;65831.34;;;3.81;100.00
46614;BME280;32338;50.430;6.806;2022-11-23T07:22:39;65833.00;;;3.82;100.00
46614;BME280;32338;50.430;6.806;2022-11-23T07:25:07;65838.06;;;3.87;100.00
46614;BME280;32338;50.430;6.806;2022-11-23T07:27:35;65839.16;;;3.88;100.00
46614;BME280;32338;50.430;6.806;2022-11-23T07:30:02;65844.53;;;3.90;100.00
46614;BME280;32338;50.430;6.806;2022-11-23T07:32:29;65845.31;;;3.94;100.00
46614;BME280;32338;50.430;6.806;2022-11-23T07:34:57;65839.72;;;3.88;100.00
46614;BME280;32338;50.430;6.806;2022-11-23T07:37:24;65854.63;;;4.00;100.00
46614;BME280;32338;50.430;6.806;2022-11-23T07:39:50;65843.06;;;3.92;100.00
46614;BME280;32338;50.430;6.806;2022-11-23T07:42:17;65846.03;;;3.89;100.00
46614;BME280;32338;50.430;6.806;2022-11-23T07:44:44;65840.84;;;3.89;100.00
46614;BME280;32338;50.430;6.806;2022-11-23T07:47:11;65834.53;;;3.88;100.00
46614;BME280;32338;50.430;6.806;2022-11-23T07:49:38;65835.47;;;3.87;100.00
46614;BME280;32338;50.430;6.806;2022-11-23T07:52:15;65836.34;;;3.85;100.00
46614;BME280;32338;50.430;6.806;2022-11-23T07:54:41;65833.56;;;3.83;100.00
46614;BME280;32338;50.430;6.806;2022-11-23T07:57:09;65833.00;;;3.82;100.00
46614;BME280;32338;50.430;6.806;2022-11-23T07:59:36;65834.13;;;3.83;100.00
46614;BME280;32338;50.430;6.806;2022-11-23T08:02:02;65835.03;;;3.82;100.00
46614;BME280;32338;50.430;6.806;2022-11-23T08:04:29;65829.63;;;3.79;100.00
46614;BME280;32338;50.430;6.806;2022-11-23T08:06:55;65835.25;;;3.84;100.00
46614;BME280;32338;50.430;6.806;2022-11-23T08:09:23;65841.19;;;3.87;100.00
46614;BME280;32338;50.430;6.806;2022-11-23T08:11:50;65848.88;;;3.99;100.00
46614;BME280;32338;50.430;6.806;2022-11-23T08:14:16;65848.13;;;3.96;100.00
46614;BME280;32338;50.430;6.806;2022-11-23T08:16:46;65852.97;;;3.98;100.00
46614;BME280;32338;50.430;6.806;2022-11-23T08:19:13;65847.91;;;3.94;100.00
46614;BME280;32338;50.430;6.806;2022-11-23T08:21:40;65863.81;;;4.11;100.00
46614;BME280;32338;50.430;6.806;2022-11-23T08:24:07;65853.72;;;4.01;100.00
46614;BME280;32338;50.430;6.806;2022-11-23T08:26:35;65847.91;;;3.94;100.00
46614;BME280;32338;50.430;6.806;2022-11-23T08:29:02;65852.03;;;4.00;100.00
46614;BME280;32338;50.430;6.806;2022-11-23T08:31:28;65852.75;;;3.96;100.00
46614;BME280;32338;50.430;6.806;2022-11-23T08:33:55;65843.06;;;3.92;100.00
46614;BME280;32338;50.430;6.806;2022-11-23T08:36:22;65841.94;;;3.90;100.00
46614;BME280;32338;50.430;6.806;2022-11-23T08:38:49;65846.25;;;3.92;100.00
46614;BME280;32338;50.430;6.806;2022-11-23T08:41:17;65837.47;;;3.86;100.00
46614;BME280;32338;50.430;6.806;2022-11-23T08:43:46;65847.22;;;3.98;100.00
46614;BME280;32338;50.430;6.806;2022-11-23T08:46:13;65856.53;;;4.04;100.00
46614;BME280;32338;50.430;6.806;2022-11-23T08:48:39;65857.44;;;4.02;100.00
46614;BME280;32338;50.430;6.806;2022-11-23T08:51:07;65841.25;;;3.95;100.00
46614;BME280;32338;50.430;6.806;2022-11-23T08:53:34;65858.34;;;4.01;100.00
46614;BME280;32338;50.430;6.806;2022-11-23T08:56:01;65854.84;;;4.02;100.00
46614;BME280;32338;50.430;6.806;2022-11-23T08:58:27;65852.03;;;4.00;100.00
46614;BME280;32338;50.430;6.806;2022-11-23T09:00:57;65853.16;;;4.01;100.00
46614;BME280;32338;50.430;6.806;2022-11-23T09:03:24;65853.50;;;3.99;100.00
46614;BME280;32338;50.430;6.806;2022-11-23T09:05:50;65851.47;;;3.99;100.00
46614;BME280;32338;50.430;6.806;2022-11-23T09:08:18;65845.31;;;3.94;100.00
46614;BME280;32338;50.430;6.806;2022-11-23T09:10:45;65848.13;;;3.96;100.00
46614;BME280;32338;50.430;6.806;2022-11-23T09:13:12;65854.28;;;4.02;100.00
46614;BME280;32338;50.430;6.806;2022-11-23T09:15:38;65844.59;;;3.98;100.00
46614;BME280;32338;50.430;6.806;2022-11-23T09:18:06;65844.78;;;3.93;100.00
46614;BME280;32338;50.430;6.806;2022-11-23T09:20:33;65850.91;;;3.99;100.00
46614;BME280;32338;50.430;6.806;2022-11-23T09:23:00;65851.69;;;4.02;100.00
46614;BME280;32338;50.430;6.806;2022-11-23T09:25:27;65844.00;;;3.90;100.00
46614;BME280;32338;50.430;6.806;2022-11-23T09:27:56;65853.50;;;3.99;100.00
46614;BME280;32338;50.430;6.806;2022-11-23T09:30:24;65830.75;;;3.80;100.00
46614;BME280;32338;50.430;6.806;2022-11-23T09:32:50;65833.94;;;3.81;100.00
46614;BME280;32338;50.430;6.806;2022-11-23T09:35:18;65843.66;;;3.92;100.00
46614;BME280;32338;50.430;6.806;2022-11-23T09:37:45;65833.94;;;3.81;100.00
46614;BME280;32338;50.430;6.806;2022-11-23T09:40:13;65836.34;;;3.85;100.00
46614;BME280;32338;50.430;6.806;2022-11-23T09:42:52;65846.03;;;3.89;100.00
46614;BME280;32338;50.430;6.806;2022-11-23T09:45:26;65845.88;;;3.94;100.00
46614;BME280;32338;50.430;6.806;2022-11-23T09:48:07;65827.41;;;3.77;100.00
46614;BME280;32338;50.430;6.806;2022-11-23T09:50:45;65828.09;;;3.73;100.00
46614;BME280;32338;50.430;6.806;2022-11-23T09:53:16;65834.47;;;3.81;100.00
46614;BME280;32338;50.430;6.806;2022-11-23T09:55:45;65832.22;;;3.79;100.00
46614;BME280;32338;50.430;6.806;2022-11-23T09:58:14;65822.56;;;3.75;100.00
46614;BME280;32338;50.430;6.806;2022-11-23T10:00:45;65825.16;;;3.75;100.00
46614;BME280;32338;50.430;6.806;2022-11-23T10:03:14;65822.38;;;3.72;100.00
46614;BME280;32338;50.430;6.806;2022-11-23T10:05:46;65816.22;;;3.67;100.00
46614;BME280;32338;50.430;6.806;2022-11-23T10:08:21;65818.44;;;3.69;100.00
46614;BME280;32338;50.430;6.806;2022-11-23T10:10:57;65821.41;;;3.67;100.00
46614;BME280;32338;50.430;6.806;2022-11-23T10:13:33;65816.22;;;3.67;100.00
46614;BME280;32338;50.430;6.806;2022-11-23T10:16:10;65830.75;;;3.80;100.00
46614;BME280;32338;50.430;6.806;2022-11-23T10:18:45;65837.63;;;3.82;100.00
46614;BME280;32338;50.430;6.806;2022-11-23T10:21:25;65832.81;;;3.80;100.00
46614;BME280;32338;50.430;6.806;2022-11-23T10:23:55;65839.72;;;3.88;100.00
46614;BME280;32338;50.430;6.806;2022-11-23T10:26:30;65845.31;;;3.94;100.00
46614;BME280;32338;50.430;6.806;2022-11-23T10:29:05;65841.06;;;3.92;100.00
46614;BME280;32338;50.430;6.806;2022-11-23T10:31:35;65857.84;;;4.08;100.00
46614;BME280;32338;50.430;6.806;2022-11-23T10:34:07;65866.81;;;4.16;100.00
46614;BME280;32338;50.430;6.806;2022-11-23T10:36:38;65869.63;;;4.18;100.00
46614;BME280;32338;50.430;6.806;2022-11-23T10:39:16;65866.81;;;4.16;100.00
46614;BME280;32338;50.430;6.806;2022-11-23T10:41:44;65883.22;;;4.26;100.00
46614;BME280;32338;50.430;6.806;2022-11-23T10:44:21;65877.25;;;4.23;100.00
46614;BME280;32338;50.430;6.806;2022-11-23T10:46:52;65889.00;;;4.34;100.00
46614;BME280;32338;50.430;6.806;2022-11-23T10:49:20;65910.31;;;4.53;100.00
46614;BME280;32338;50.430;6.806;2022-11-23T10:51:50;65898.53;;;4.43;100.00
46614;BME280;32338;50.430;6.806;2022-11-23T10:54:21;65898.00;;;4.42;100.00
46614;BME280;32338;50.430;6.806;2022-11-23T10:56:49;65901.34;;;4.45;100.00
46614;BME280;32338;50.430;6.806;2022-11-23T10:59:32;65906.94;;;4.50;100.00
46614;BME280;32338;50.430;6.806;2022-11-23T11:02:08;65906.59;;;4.52;100.00
46614;BME280;32338;50.430;6.806;2022-11-23T11:04:37;65923.56;;;4.63;100.00
46614;BME280;32338;50.430;6.806;2022-11-23T11:07:26;65914.03;;;4.54;100.00
46614;BME280;32338;50.430;6.806;2022-11-23T11:09:55;65919.06;;;4.59;100.00
46614;BME280;32338;50.430;6.806;2022-11-23T11:12:23;65915.91;;;4.59;100.00
46614;BME280;32338;50.430;6.806;2022-11-23T11:14:55;65916.47;;;4.59;100.00
46614;BME280;32338;50.430;6.806;2022-11-23T11:17:26;65920.41;;;4.63;100.00
46614;BME280;32338;50.430;6.806;2022-11-23T11:19:53;65913.13;;;4.56;100.00
46614;BME280;32338;50.430;6.806;2022-11-23T11:22:28;65919.06;;;4.59;100.00
46614;BME280;32338;50.430;6.806;2022-11-23T11:24:57;65922.06;;;4.64;100.00
46614;BME280;32338;50.430;6.806;2022-11-23T11:27:25;65926.72;;;4.64;100.00
46614;BME280;32338;50.430;6.806;2022-11-23T11:29:55;65926.56;;;4.68;100.00
46614;BME280;32338;50.430;6.806;2022-11-23T11:32:29;65931.97;;;4.71;100.00
46614;BME280;32338;50.430;6.806;2022-11-23T11:35:02;65933.50;;;4.77;100.00
46614;BME280;32338;50.430;6.806;2022-11-23T11:37:38;65931.03;;;4.73;100.00
46614;BME280;32338;50.430;6.806;2022-11-23T11:40:09;65926.38;;;4.66;100.00
46614;BME280;32338;50.430;6.806;2022-11-23T11:42:47;65931.03;;;4.73;100.00
46614;BME280;32338;50.430;6.806;2022-11-23T11:45:20;65929.00;;;4.73;100.00
46614;BME280;32338;50.430;6.806;2022-11-23T11:47:54;65937.22;;;4.78;100.00
46614;BME280;32338;50.430;6.806;2022-11-23T11:50:24;65950.66;;;4.91;100.00
46614;BME280;32338;50.430;6.806;2022-11-23T11:52:55;65957.38;;;4.97;100.00
46614;BME280;32338;50.430;6.806;2022-11-23T11:55:28;65972.69;;;5.06;100.00
46614;BME280;32338;50.430;6.806;2022-11-23T11:58:02;65962.78;;;4.99;100.00
46614;BME280;32338;50.430;6.806;2022-11-23T12:00:33;65962.44;;;5.01;100.00
46614;BME280;32338;50.430;6.806;2022-11-23T12:03:08;65964.69;;;5.03;100.00
46614;BME280;32338;50.430;6.806;2022-11-23T12:05:43;65968.25;;;5.09;100.00
46614;BME280;32338;50.430;6.806;2022-11-23T12:08:16;65953.69;;;4.96;100.00
46614;BME280;32338;50.430;6.806;2022-11-23T12:10:48;65957.19;;;4.94;100.00
46614;BME280;32338;50.430;6.806;2022-11-23T12:13:20;65956.28;;;4.96;100.00
46614;BME280;32338;50.430;6.806;2022-11-23T12:15:52;65951.78;;;4.92;100.00
46614;BME280;32338;50.430;6.806;2022-11-23T12:18:40;65954.03;;;4.94;100.00
46614;BME280;32338;50.430;6.806;2022-11-23T12:21:31;65974.91;;;5.08;100.00
46614;BME280;32338;50.430;6.806;2022-11-23T12:24:11;65970.84;;;5.09;100.00
46614;BME280;32338;50.430;6.806;2022-11-23T12:26:50;65978.34;;;5.18;100.00
46614;BME280;32338;50.430;6.806;2022-11-23T12:29:35;65991.94;;;5.26;100.00
46614;BME280;32338;50.430;6.806;2022-11-23T12:32:12;66011.22;;;5.46;100.00
46614;BME280;32338;50.430;6.806;2022-11-23T12:34:56;66024.84;;;5.54;100.00
46614;BME280;32338;50.430;6.806;2022-11-23T12:37:38;66047.13;;;5.79;100.00
46614;BME280;32338;50.430;6.806;2022-11-23T12:40:25;66046.00;;;5.78;100.00
46614;BME280;32338;50.430;6.806;2022-11-23T12:42:57;66039.06;;;5.69;100.00
46614;BME280;32338;50.430;6.806;2022-11-23T12:45:36;66065.88;;;5.99;100.00
46614;BME280;32338;50.430;6.806;2022-11-23T12:51:06;66127.97;;;6.54;100.00
46614;BME280;32338;50.430;6.806;2022-11-23T12:53:47;66118.41;;;6.45;100.00
46614;BME280;32338;50.430;6.806;2022-11-23T12:56:26;66124.03;;;6.50;100.00
46614;BME280;32338;50.430;6.806;2022-11-23T12:58:58;66122.34;;;6.48;100.00
46614;BME280;32338;50.430;6.806;2022-11-23T13:01:29;66114.50;;;6.41;100.00
46614;BME280;32338;50.430;6.806;2022-11-23T13:04:27;66082.50;;;6.12;100.00
46614;BME280;32338;50.430;6.806;2022-11-23T13:10:19;66072.53;;;5.98;100.00
46614;BME280;32338;50.430;6.806;2022-11-23T13:13:13;66057.22;;;5.89;100.00
46614;BME280;32338;50.430;6.806;2022-11-23T13:16:03;66080.41;;;6.05;100.00